Devault, PA

3:24 PM EDT on September 01, 2014 (GMT -0400)
Beacon Hill Lane - Aculink | Change Station
CLOSE
Current Station
Personal Weather Station
Location: Phoenixville, PA
Elevation: 407 ft
Nearby Weather Stations

Elev 407 ft 40.10 °N, 75.49 °W | Updated 8 minutes ago

Mostly Cloudy
Mostly Cloudy
86.4 °F
Feels Like 96 °F
N
2.2
Wind Variable Wind from NW

Today
High -- | Low -- °F
--% Chance of Precip.
Yesterday
High -- | Low -- °F
Precip. -- in
6:29 AM 7:33 PM
Waxing Crescent, 43% visible
Pressure 29.97 in
Visibility 10.0 miles
Clouds Few 3300 ft
Scattered Clouds 4100 ft
Overcast 6500 ft
Heat Index 96 °F
Dew Point 75 °F
Humidity 69%
Rainfall 0.23 in
Snow Depth Not available.
UV 2 out of 12
Pollen 4.30 out of 12
Air Quality Not available.
Flu Activity Not available.
METAR KPTW 011854Z AUTO VRB03KT 10SM FEW033 SCT041 OVC065 28/21 A2998 RMK AO2 SLP148 T02830211

More Conditions Fewer Conditions

Pressure 29.97 in
Visibility 10.0 miles
Clouds Few 3300 ft
Scattered Clouds 4100 ft
Overcast 6500 ft
Heat Index 96 °F
Dew Point 75 °F
Humidity 69%
Rainfall 0.23 in
Snow Depth Not available.
UV 2 out of 12
Pollen 4.30 out of 12
Air Quality Not available.
Flu Activity Not available.
METAR KPTW 011854Z AUTO VRB03KT 10SM FEW033 SCT041 OVC065 28/21 A2998 RMK AO2 SLP148 T02830211

More Conditions Fewer Conditions

10-Day Weather Forecast

Almanac

Astronomy

Sep. 01, 2014 Rise Set
Actual Time 6:29 AM EDT 7:33 PM EDT
Civil Twilight 6:01 AM EDT 8:01 PM EDT
Nautical Twilight 5:28 AM EDT 8:34 PM EDT
Astronomical Twilight 4:54 AM EDT 9:08 PM EDT
Moon 1:13 PM EDT 11:32 PM EDT
Length of Visible Light 13h 59m
Length of Day
13h 03m
Tomorrow will be 2m 32s shorter.
Waxing Crescent, 43% of the Moon is Illuminated
Today
Waxing Crescent
Sep 2
First Quarter
Sep 8
Full
Sep 15
Last Quarter
Sep 24
New

Today's Extremes

State Highs State Lows

Community

WunderPhotos

Upload Photos

1,749,378 photos uploaded!

WunderBlogs® & News

Nearby

Snow Depth

Station Depth Elevation
No new snow has been reported.

Earthquake Activity

City Distance Mag. Time & Date
No recent earthquake activity has been reported nearby.
Minimum magnitude displayed is 2.5.

Coastal Water Temperatures

Place Temperature
Ship John Shoal, NJ 77.0 °F
Cape May, NJ 82.0 °F
Reedy Point, DE 80.1 °F
Delaware City, DE 80.1 °F
Marcus Hook, PA 78.1 °F

Nearby Weather Stations